Kittery, Maine
Current Conditions -  °F | °C
As of 4:58 AM on Tuesday 27 Jan 2015 (Local Time) from KPSM Reporting Station
Light Snow Light Snow  
Wind Chill: -6°   Ceiling: 200
Heat Index: 13°   Visibility: 0.75mi
Dew Point:   Wind: 22mph
Humidity: 82%   Direction: 10°N
Pressure: 29.69"   Gusts: 38mph
Location:  43.09°N, 70.75°W
Report Text: KPSM 270958Z AUTO 01019G33KT 3/4SM R34/4000FT -SN VV002 M11/M13 A2969 RMK AO2 PK WND 35034/27 SLP059 P0000 T11071132
Loading
Personal Weather Stations






























Interactive Weather Map New forecast layout! Learn more

10-Day Weather Forecast

Advertisements
Track Severe Weather on mobile